Weather reports worldwide

Advertisment
Sciacca, Italy (16436): temperature & dewpoint: 20.05.2019 00:00:00 - 26.05.2019 00:00:00 (CEST)Sciacca, Italy (16436): wind speed: 20.05.2019 00:00:00 - 26.05.2019 00:00:00 (CEST)Sciacca, Italy (16436): wind direction: 20.05.2019 00:00:00 - 26.05.2019 00:00:00 (CEST)Sciacca, Italy (16436): reduced air pressure: 20.05.2019 00:00:00 - 26.05.2019 00:00:00 (CEST)
Date & Time tt [°C] td [°C] ff [km/h] ff [kn] dd ppp [hPa]
26.05.2019 00:00:00 - - - - - -
25.05.2019 23:00:00 19,4 9,8 15 8 E 1022,5
25.05.2019 22:00:00 19,0 10,5 11 6 E 1021,6
25.05.2019 21:00:00 19,3 10,0 11 6 E 1021,3
25.05.2019 20:00:00 18,8 11,1 8 4 E 1021,8
25.05.2019 19:00:00 18,5 14,3 - - - 1022,2
25.05.2019 18:00:00 19,0 15,0 - - - 1022,8
25.05.2019 17:00:00 19,4 14,6 - - - 1021,6
25.05.2019 16:00:00 20,2 15,1 - - - 1023,0
25.05.2019 15:00:00 18,1 16,5 - - - 1024,6
25.05.2019 14:00:00 18,5 15,7 4 2 SE 1025,4
25.05.2019 13:00:00 19,0 14,6 - - - 1024,6
25.05.2019 12:00:00 17,2 15,8 - - - 1025,5
25.05.2019 11:00:00 16,4 15,4 - - - 1026,1
25.05.2019 10:00:00 15,6 14,7 - - - 1026,0
25.05.2019 09:00:00 15,8 14,4 - - - 1027,3
25.05.2019 08:00:00 15,3 14,3 - - - 1025,9
25.05.2019 07:00:00 15,0 14,1 - - - 1026,2
25.05.2019 06:00:00 15,7 14,5 0 0 N 1026,1
25.05.2019 05:00:00 16,3 12,6 0 0 N 1024,0
25.05.2019 04:00:00 16,5 12,6 0 0 N 1024,1
25.05.2019 03:00:00 16,0 12,1 0 0 N 1024,7
25.05.2019 02:00:00 16,9 11,8 0 0 N 1024,6
25.05.2019 01:00:00 18,2 12,2 2 1 NE 1024,6
25.05.2019 00:00:00 17,2 10,0 0 0 N 1024,3
24.05.2019 23:00:00 16,7 9,6 - - - 1025,3
24.05.2019 22:00:00 16,9 9,8 - - - 1025,5
24.05.2019 21:00:00 18,0 10,6 0 0 N 1025,0
24.05.2019 20:00:00 19,2 9,6 0 0 N 1024,7
24.05.2019 19:00:00 19,7 11,7 - - - 1024,7
24.05.2019 18:00:00 20,4 14,7 - - - 1024,6
24.05.2019 17:00:00 20,8 14,1 - - - 1024,8
24.05.2019 16:00:00 - - - - - -
24.05.2019 15:00:00 21,6 12,1 8 4 NW 1025,2
24.05.2019 14:00:00 21,0 11,0 13 7 SW 1025,6
24.05.2019 13:00:00 20,3 13,4 13 7 SW 1026,1
24.05.2019 12:00:00 20,8 15,0 15 8 SW 1026,2
24.05.2019 11:00:00 19,1 16,3 15 8 SW 1026,6
24.05.2019 10:00:00 19,4 14,1 - - - 1026,5
24.05.2019 09:00:00 17,9 13,7 - - - 1026,8
24.05.2019 08:00:00 17,9 10,5 0 0 N 1027,0
24.05.2019 07:00:00 18,0 12,2 4 2 NNE 1027,3
24.05.2019 06:00:00 16,2 9,6 11 6 NNW 1027,2
24.05.2019 05:00:00 14,8 10,2 4 2 NNE 1027,1
24.05.2019 04:00:00 15,8 11,1 9 5 N 1027,2
24.05.2019 03:00:00 14,0 11,8 - - - 1027,4
24.05.2019 02:00:00 14,3 11,6 - - - 1027,4
24.05.2019 01:00:00 14,7 10,9 - - - 1027,6
24.05.2019 00:00:00 16,3 12,8 18 10 NNW 1027,5
23.05.2019 23:00:00 17,3 9,6 18 10 NNW 1027,5
23.05.2019 22:00:00 16,8 13,3 - - - 1027,2
23.05.2019 21:00:00 17,5 12,8 8 4 NNW 1026,8
23.05.2019 20:00:00 18,6 11,1 18 10 W 1026,3
23.05.2019 19:00:00 19,0 15,6 18 10 WNW 1026,1
23.05.2019 18:00:00 20,8 12,7 21 11 W 1026,2
23.05.2019 17:00:00 21,1 14,9 22 12 W 1026,6
23.05.2019 16:00:00 21,2 15,7 - - - 1026,8
23.05.2019 15:00:00 21,0 14,6 22 12 W 1027,2
23.05.2019 14:00:00 20,4 17,5 16 9 WSW 1027,8
23.05.2019 13:00:00 20,3 16,1 - - - 1028,1
23.05.2019 12:00:00 21,2 12,8 - - - 1028,2
23.05.2019 11:00:00 21,4 12,8 - - - 1028,2
23.05.2019 10:00:00 19,6 10,8 - - - 1028,6
23.05.2019 09:00:00 15,3 14,6 - - - 1028,9
23.05.2019 08:00:00 14,2 13,7 - - - 1028,5
23.05.2019 07:00:00 13,1 12,1 - - - 1028,6
23.05.2019 06:00:00 13,8 12,5 - - - 1028,1
23.05.2019 05:00:00 12,8 12,5 - - - 1028,1
23.05.2019 04:00:00 12,9 12,6 - - - 1028,3
23.05.2019 03:00:00 12,9 12,6 5 3 WSW 1028,5
23.05.2019 02:00:00 12,8 12,3 0 0 N 1028,6
23.05.2019 01:00:00 14,1 13,6 4 2 WSW 1028,5
23.05.2019 00:00:00 14,1 13,6 8 4 NE 1028,6
22.05.2019 23:00:00 14,3 13,6 - - - 1028,5
22.05.2019 22:00:00 15,0 14,0 - - - 1027,9
22.05.2019 21:00:00 16,1 14,9 0 0 N 1027,0
22.05.2019 20:00:00 18,3 16,2 0 0 N 1026,6
22.05.2019 19:00:00 19,0 16,2 13 7 W 1026,3
22.05.2019 18:00:00 17,9 16,5 4 2 WSW 1026,9
22.05.2019 17:00:00 17,9 16,3 5 3 SW 1027,2
22.05.2019 16:00:00 17,7 15,8 11 6 WSW 1027,2
22.05.2019 15:00:00 19,6 15,2 13 7 WSW 1027,2
22.05.2019 14:00:00 20,2 15,1 9 5 SW 1027,4
22.05.2019 13:00:00 19,7 14,0 8 4 NNE 1028,2
22.05.2019 12:00:00 19,8 10,2 9 5 S 1028,3
22.05.2019 11:00:00 19,7 8,6 - - - 1028,3
22.05.2019 10:00:00 20,0 7,6 - - - 1028,5
22.05.2019 09:00:00 18,6 12,8 - - - 1028,8
22.05.2019 08:00:00 16,5 12,2 - - - 1028,9
22.05.2019 07:00:00 14,8 11,3 - - - 1028,6
22.05.2019 06:00:00 14,6 11,0 - - - 1028,7
22.05.2019 05:00:00 14,3 11,1 - - - 1028,7
22.05.2019 04:00:00 13,9 11,6 - - - 1028,8
22.05.2019 03:00:00 13,5 10,8 - - - 1028,6
22.05.2019 02:00:00 14,8 12,3 - - - 1028,8
22.05.2019 01:00:00 14,0 10,8 0 0 N 1028,8
22.05.2019 00:00:00 14,3 10,7 0 0 N 1029,1
21.05.2019 23:00:00 15,5 10,8 0 0 N 1028,9
21.05.2019 22:00:00 15,6 8,8 0 0 N 1028,4
21.05.2019 21:00:00 18,2 8,9 - - - 1027,4
21.05.2019 20:00:00 18,1 8,6 5 3 W 1027,2
21.05.2019 19:00:00 18,7 10,0 - - - 1027,0
21.05.2019 18:00:00 18,0 12,6 15 8 W 1027,3
21.05.2019 17:00:00 19,7 13,1 15 8 SW 1026,7
21.05.2019 16:00:00 19,8 11,2 - - - 1027,8
21.05.2019 15:00:00 19,0 14,4 - - - 1027,9
21.05.2019 14:00:00 18,3 14,5 - - - 1028,4
21.05.2019 13:00:00 17,4 14,8 15 8 SW 1028,6
21.05.2019 12:00:00 17,4 15,7 - - - 1028,7
21.05.2019 11:00:00 17,1 15,4 - - - 1028,6
21.05.2019 10:00:00 16,5 14,8 - - - 1028,7
21.05.2019 09:00:00 16,1 14,0 9 5 WSW 1028,4
21.05.2019 08:00:00 14,7 13,4 9 5 W 1027,9
21.05.2019 07:00:00 13,6 12,5 13 7 NW 1027,6
21.05.2019 06:00:00 13,5 12,2 21 11 NW 1027,1
21.05.2019 05:00:00 14,2 11,3 15 8 NW 1026,9
21.05.2019 04:00:00 10,1 9,0 0 0 N 1027,3
21.05.2019 03:00:00 10,8 9,4 0 0 N 1027,2
21.05.2019 02:00:00 11,8 9,9 0 0 N 1026,8
21.05.2019 01:00:00 13,4 10,2 0 0 N 1027,2
21.05.2019 00:00:00 14,9 10,3 11 6 N 1026,9
20.05.2019 23:00:00 14,4 12,1 13 7 NNW 1026,9
20.05.2019 22:00:00 14,4 12,1 9 5 NNW 1026,2
20.05.2019 21:00:00 15,0 12,1 - - - 1025,6
20.05.2019 20:00:00 15,6 13,6 15 8 W 1025,5
20.05.2019 19:00:00 16,9 13,7 16 9 W 1024,9
20.05.2019 18:00:00 17,7 13,5 16 9 WSW 1024,7
20.05.2019 17:00:00 17,6 12,5 16 9 W 1024,7
20.05.2019 16:00:00 - - - - - -
20.05.2019 15:00:00 18,6 16,5 15 8 SW 1024,9
20.05.2019 14:00:00 18,1 16,4 11 6 SSW 1024,9
20.05.2019 13:00:00 17,6 16,1 - - - 1024,8
20.05.2019 12:00:00 17,2 15,5 - - - 1024,9
20.05.2019 11:00:00 16,6 14,9 - - - 1024,4
20.05.2019 10:00:00 16,5 15,0 - - - 1024,2
20.05.2019 09:00:00 15,1 14,4 4 2 S 1024,4
20.05.2019 08:00:00 13,8 13,3 0 0 N 1024,3
20.05.2019 07:00:00 12,6 12,1 - - - 1024,0
20.05.2019 06:00:00 13,0 12,5 - - - 1023,4
20.05.2019 05:00:00 13,1 12,5 - - - 1023,1
20.05.2019 04:00:00 13,4 12,6 - - - 1023,2
20.05.2019 03:00:00 13,5 12,7 - - - 1023,2
20.05.2019 02:00:00 14,2 13,4 0 0 N 1023,3
20.05.2019 01:00:00 14,5 13,5 2 1 W 1023,1
20.05.2019 00:00:00 15,3 13,6 - - - 1023,0

tt = temperature
td = dewpoint
ff = wind speed
dd = wind direction
ppp = reduced air pressure

Next stations